Lansing, Illinois
Current Conditions -  °F | °C
As of 1:55 PM on Friday 24 Oct 2014 (Local Time) from KIGQ Reporting Station
Clear Clear  
Wind Chill: 64°   Ceiling: Unl
Heat Index: 64°   Visibility: 10mi
Dew Point: 51°   Wind: 8mph
Humidity: 64%   Direction: 280°W
Pressure: 30"   Gusts: NA
Location:  41.56°N, 87.54°W
Report Text: KIGQ 241855Z AUTO 28007KT 250V310 10SM CLR 18/11 A3000 RMK AO2 T01750106
Loading
Personal Weather Stations






























Interactive Weather Map
Tropical Storm Tracking
New forecast layout! Learn more

10-Day Weather Forecast

Advertisements
Track Severe Weather on mobile